Dunmow, United Kingdom
Current Conditions -  °F | °C
As of 7:20 AM on Saturday 25 Oct 2014 (Local Time) from EGSS Reporting Station
Haze Haze  
Wind Chill: 36°   Ceiling: Unl
Heat Index: 41°   Visibility: 2.4mi
Dew Point: 41°   Wind: 8mph
Humidity: 100%   Direction: 230°SW
Pressure: 30"   Gusts: NA
Location:  51.87°N, 0.36°E
Report Text: EGSS 250620Z 23007KT 3900 BR NSC 05/05 Q1016
Loading
Personal Weather Stations






























Interactive Weather Map
Tropical Storm Tracking
New forecast layout! Learn more

10-Day Weather Forecast

Advertisements
Track Severe Weather on mobile